Minneapolis, MN (55401)

2:47 PM CST on February 06, 2016 (GMT -0600)
North Loop | | Change Station
CLOSE
Current Station
Personal Weather Station
Location: Minneapolis, MN
Elevation: 823 ft
Nearby Weather Stations

Elev 823 ft 44.99 °N, 93.28 °W | Updated 3 seconds ago

Overcast
Overcast
37.9 °F
Feels Like 38 °F
N
2.0
Wind Variable Wind from ESE
Gusts 4.9 mph

Today
High -- | Low -- °F
--% Chance of Precip.
Yesterday
High -- | Low -- °F
Precip. -- in
Pressure 29.98 in
Visibility 10.0 miles
Clouds Clear
Windchill 38 °F
Dew Point 28 °F
Humidity 67%
Rainfall 0.00 in
Snow Depth Not available.
7:27 AM 5:27 PM
Waning Crescent, 4% visible
METAR KMIC 061953Z 17010KT 10SM CLR 02/M03 A2995 RMK AO2 SLP152 T00221033
Pressure 29.98 in
Visibility 10.0 miles
Clouds Clear
Windchill 38 °F
Dew Point 28 °F
Humidity 67%
Rainfall 0.00 in
Snow Depth Not available.
7:27 AM 5:27 PM
Waning Crescent, 4% visible
METAR KMIC 061953Z 17010KT 10SM CLR 02/M03 A2995 RMK AO2 SLP152 T00221033

10-Day Weather Forecast

Almanac

Astronomy

Feb. 06, 2016 Rise Set
Actual Time
Civil Twilight
Nautical Twilight
Astronomical Twilight
Moon
Length of Visible Light
Length of Day
Tomorrow will be .
, % of the Moon is Illuminated

Today's Extremes

State Highs State Lows

Community

WunderPhotos

Upload Photos

1,891,046 photos uploaded!

WunderBlog® & News

Nearby

Air Quality

  Air Quality AQ Index Pollutant
Not available.

Snow Depth

Station Depth Elevation

Earthquake Activity

City Distance Mag. Time & Date
Minimum magnitude displayed is 2.5.

Coastal Water Temperatures

Place Temperature

Stations

Nearby Weather Stations

Station Location Temp. Windchill Dew Point Humidity Wind Precip. Elev Updated Type
                   

Watches & Warnings

There are currently no watches in effect.